Time;durP1;ratioP1;P1;durP2;ratioP2;P2;SDS_P1;SDS_P2;PMS_P1;PMS_P2;Temp;Humidity;BMP_temperature;BMP_pressure;BME280_temperature;BME280_humidity;BME280_pressure;Samples;Min_cycle;Max_cycle;Signal;HPM_P1;HPM_P2
2023/06/08 00:01:25;;;;;;;6.72;4.93;;;;;;;21.10;54.86;100055.47;10288483;28;20524;-67
2023/06/08 00:06:32;;;;;;;6.15;4.88;;;;;;;21.05;54.97;100050.66;10273674;28;20046;-68
2023/06/08 00:11:35;;;;;;;5.32;4.82;;;;;;;20.96;55.24;100057.25;10274163;28;20054;-70
2023/06/08 00:16:37;;;;;;;5.95;5.25;;;;;;;20.88;55.00;100046.56;10289311;28;20124;-67
2023/06/08 00:21:39;;;;;;;6.00;4.72;;;;;;;20.76;55.42;100052.50;10286048;28;20061;-68
2023/06/08 00:26:40;;;;;;;5.43;4.72;;;;;;;20.77;55.62;100053.34;10286717;28;21398;-68
2023/06/08 00:31:42;;;;;;;5.72;5.20;;;;;;;20.74;55.13;100037.50;10287376;28;20133;-68
2023/06/08 00:36:44;;;;;;;5.45;4.95;;;;;;;20.65;55.53;100037.63;10281114;28;20141;-67
2023/06/08 00:41:46;;;;;;;5.60;4.93;;;;;;;20.48;55.67;100028.94;10273564;28;20069;-67
2023/06/08 00:46:49;;;;;;;9.32;5.30;;;;;;;20.49;55.67;100041.41;10271959;28;20137;-67
2023/06/08 00:51:50;;;;;;;7.60;4.82;;;;;;;20.28;56.11;100039.56;10288988;28;20060;-68
2023/06/08 00:56:52;;;;;;;5.95;4.88;;;;;;;20.33;56.32;100046.22;10289079;28;20423;-68
2023/06/08 01:01:56;;;;;;;5.93;5.18;;;;;;;20.37;56.37;100048.38;10287493;28;20057;-67
2023/06/08 01:07:27;;;;;;;7.05;5.00;;;;;;;20.26;56.38;100043.47;10267789;28;20054;-67
2023/06/08 01:12:32;;;;;;;5.00;4.53;;;;;;;20.21;56.56;100049.44;10248046;28;20061;-67
2023/06/08 01:17:47;;;;;;;6.22;5.00;;;;;;;20.07;56.59;100043.06;10287026;28;20465;-67
2023/06/08 01:23:00;;;;;;;6.05;5.55;;;;;;;20.01;57.39;100049.25;10289320;28;20056;-68
2023/06/08 01:28:12;;;;;;;5.32;4.57;;;;;;;20.02;57.19;100040.09;10281988;28;20212;-67
2023/06/08 01:33:32;;;;;;;7.75;5.05;;;;;;;19.93;57.24;100035.84;10268893;28;20100;-68
2023/06/08 01:38:53;;;;;;;5.07;4.60;;;;;;;19.96;57.12;100040.84;10290891;28;20066;-68
2023/06/08 01:43:58;;;;;;;5.78;4.65;;;;;;;19.88;57.24;100041.81;10308016;28;20677;-69
2023/06/08 01:49:02;;;;;;;5.80;5.30;;;;;;;19.89;57.67;100043.50;10284488;28;20046;-68
2023/06/08 01:54:06;;;;;;;5.30;4.90;;;;;;;19.81;57.61;100040.06;10270235;28;20098;-68
2023/06/08 01:59:07;;;;;;;6.10;5.18;;;;;;;19.66;58.02;100035.47;10285029;28;20073;-68
2023/06/08 02:04:09;;;;;;;5.55;5.07;;;;;;;19.71;58.32;100033.06;10283606;28;20050;-69
2023/06/08 02:09:10;;;;;;;5.65;5.15;;;;;;;19.65;57.97;100027.56;10284720;28;20054;-68
2023/06/08 02:14:12;;;;;;;6.05;5.45;;;;;;;19.65;58.64;100028.44;10282171;28;20073;-69
2023/06/08 02:19:14;;;;;;;6.35;5.80;;;;;;;19.63;58.46;100022.34;10281332;28;20150;-68
2023/06/08 02:24:18;;;;;;;5.78;4.85;;;;;;;19.66;59.09;100040.88;10266818;28;20054;-69
2023/06/08 02:29:19;;;;;;;5.28;4.78;;;;;;;19.62;58.52;100028.78;10260980;28;20057;-67
2023/06/08 02:34:21;;;;;;;6.38;5.75;;;;;;;19.66;58.12;100038.19;10285202;28;20058;-66
2023/06/08 02:39:22;;;;;;;6.35;5.85;;;;;;;19.63;58.74;100043.97;10278510;28;20053;-69
2023/06/08 02:44:24;;;;;;;5.97;5.47;;;;;;;19.63;58.72;100035.84;10270967;28;20250;-68
2023/06/08 02:49:25;;;;;;;7.18;5.28;;;;;;;19.65;58.67;100039.22;10281139;28;20093;-68
2023/06/08 02:54:26;;;;;;;8.75;6.13;;;;;;;19.58;59.24;100028.31;10283711;28;20051;-68
2023/06/08 02:59:29;;;;;;;5.78;5.22;;;;;;;19.62;59.16;100042.28;10280485;28;20597;-68
2023/06/08 03:04:31;;;;;;;5.93;5.43;;;;;;;19.59;59.31;100034.56;10282353;28;20058;-68
2023/06/08 03:09:32;;;;;;;5.95;5.45;;;;;;;19.37;59.45;100004.78;10280198;28;20305;-68
2023/06/08 03:14:34;;;;;;;6.57;5.97;;;;;;;19.55;59.47;100028.69;10270476;28;20940;-68
2023/06/08 03:19:35;;;;;;;5.75;5.25;;;;;;;19.53;59.34;100024.50;10267253;28;20145;-67
2023/06/08 03:24:37;;;;;;;6.72;5.65;;;;;;;19.49;59.26;100024.06;10291469;28;20069;-67
2023/06/08 03:29:39;;;;;;;7.10;6.15;;;;;;;19.45;59.81;100017.34;10291207;28;20046;-66
2023/06/08 03:34:40;;;;;;;7.32;6.03;;;;;;;19.39;59.67;100012.69;10270722;28;20113;-67
2023/06/08 03:39:42;;;;;;;7.10;6.40;;;;;;;19.47;59.87;100034.22;10276887;28;20443;-68
2023/06/08 03:44:43;;;;;;;6.75;6.05;;;;;;;19.38;59.90;100021.81;10292145;28;20050;-67
2023/06/08 03:49:45;;;;;;;6.53;5.93;;;;;;;19.33;60.35;100027.78;10274712;28;20634;-68
2023/06/08 03:54:46;;;;;;;6.50;5.60;;;;;;;19.29;60.11;100022.94;10290600;28;20054;-68
2023/06/08 03:59:47;;;;;;;6.97;6.30;;;;;;;19.35;60.45;100027.59;10299579;28;20058;-68
2023/06/08 04:04:49;;;;;;;6.47;5.88;;;;;;;19.36;60.26;100019.31;10268825;28;20051;-67
2023/06/08 04:09:50;;;;;;;7.38;6.63;;;;;;;19.44;60.53;100026.47;10289168;28;20169;-68
2023/06/08 04:14:52;;;;;;;6.53;6.03;;;;;;;19.45;60.28;100024.63;10286883;28;20082;-69
2023/06/08 04:19:54;;;;;;;6.18;5.68;;;;;;;19.48;60.43;100027.78;10285812;28;20607;-68
2023/06/08 04:24:56;;;;;;;6.10;5.60;;;;;;;19.55;60.14;100038.66;10281068;28;20152;-68
2023/06/08 04:29:58;;;;;;;6.72;6.13;;;;;;;19.57;61.99;100039.31;10270011;28;20457;-69
2023/06/08 04:35:00;;;;;;;7.10;6.35;;;;;;;19.55;64.72;100049.47;10283922;28;20453;-69
2023/06/08 04:40:04;;;;;;;8.43;7.10;;;;;;;19.57;66.85;100047.41;10255120;28;20462;-70
2023/06/08 04:45:08;;;;;;;7.70;6.95;;;;;;;19.58;66.95;100044.53;10281133;28;20050;-70
2023/06/08 04:50:10;;;;;;;8.10;6.72;;;;;;;19.61;68.16;100049.53;10280044;28;20655;-70
2023/06/08 04:55:13;;;;;;;7.15;6.53;;;;;;;19.70;68.05;100052.97;10273484;28;20574;-70
2023/06/08 05:00:14;;;;;;;7.93;6.70;;;;;;;19.71;67.99;100048.41;10287988;28;20706;-70
2023/06/08 05:05:16;;;;;;;9.15;6.72;;;;;;;19.83;67.88;100054.19;10284230;28;20405;-71
2023/06/08 05:10:17;;;;;;;7.63;6.90;;;;;;;19.90;66.78;100044.31;10283631;28;20062;-69
2023/06/08 05:15:18;;;;;;;6.25;5.75;;;;;;;20.03;67.70;100052.59;10287959;28;21724;-69
2023/06/08 05:20:23;;;;;;;7.15;6.28;;;;;;;20.10;67.43;100047.25;10283874;28;20054;-68
2023/06/08 05:25:26;;;;;;;7.38;6.72;;;;;;;20.13;66.94;100042.31;10282884;28;20476;-69
2023/06/08 05:30:27;;;;;;;6.90;6.30;;;;;;;20.17;65.78;100031.13;10278638;28;20038;-68
2023/06/08 05:35:29;;;;;;;6.70;6.10;;;;;;;20.25;65.61;100034.53;10284443;28;20046;-70
2023/06/08 05:40:31;;;;;;;8.20;6.70;;;;;;;20.18;65.86;100040.91;10286113;28;20070;-69
2023/06/08 05:45:32;;;;;;;6.97;6.38;;;;;;;20.24;65.47;100042.84;10283256;28;20212;-70
2023/06/08 05:50:34;;;;;;;6.78;6.10;;;;;;;20.28;64.94;100044.09;10269735;28;20054;-68
2023/06/08 05:55:36;;;;;;;6.60;6.00;;;;;;;20.37;65.02;100042.97;10278153;28;20049;-68
2023/06/08 06:00:38;;;;;;;6.15;5.40;;;;;;;20.49;64.26;100041.41;10274796;28;20164;-70
2023/06/08 06:05:39;;;;;;;6.88;5.20;;;;;;;20.62;65.03;100053.38;10266155;28;20046;-69
2023/06/08 06:10:41;;;;;;;6.95;6.25;;;;;;;20.64;64.59;100046.75;10246955;28;21778;-70
2023/06/08 06:15:42;;;;;;;6.00;5.50;;;;;;;20.87;63.66;100047.56;10270701;28;20073;-70
2023/06/08 06:20:44;;;;;;;6.25;5.65;;;;;;;20.97;62.60;100053.50;10264683;28;20051;-70
2023/06/08 06:25:45;;;;;;;7.03;5.80;;;;;;;21.00;62.59;100047.69;10261948;28;20205;-71
2023/06/08 06:30:47;;;;;;;6.32;5.72;;;;;;;21.10;63.27;100059.00;10268648;28;20779;-70
2023/06/08 06:35:48;;;;;;;6.07;5.57;;;;;;;21.14;61.34;100054.88;10243110;28;20145;-68
2023/06/08 06:40:52;;;;;;;7.20;5.88;;;;;;;21.19;61.17;100041.56;10260903;28;20064;-67
2023/06/08 06:45:53;;;;;;;6.07;5.57;;;;;;;21.37;61.10;100026.69;10248453;28;20161;-71
2023/06/08 06:50:55;;;;;;;6.25;5.75;;;;;;;21.65;59.80;100044.78;10261370;28;20057;-70
2023/06/08 06:55:56;;;;;;;5.75;5.25;;;;;;;21.84;59.23;100054.88;10267011;28;20632;-69
2023/06/08 07:00:58;;;;;;;6.13;5.63;;;;;;;22.05;58.95;100050.34;10249787;28;20065;-70
2023/06/08 07:05:59;;;;;;;6.93;6.32;;;;;;;22.14;57.94;100049.13;10263239;28;20062;-71
2023/06/08 07:11:01;;;;;;;6.18;5.43;;;;;;;22.16;57.80;100041.63;10262831;28;20092;-71
2023/06/08 07:16:04;;;;;;;6.72;6.15;;;;;;;22.23;57.04;100053.34;10259846;28;20077;-72
2023/06/08 07:21:06;;;;;;;5.63;5.07;;;;;;;22.23;57.69;100045.19;10262375;28;20062;-74
2023/06/08 07:26:08;;;;;;;6.32;5.72;;;;;;;22.32;57.63;100039.59;10270842;28;20058;-73
2023/06/08 07:31:30;;;;;;;6.53;5.93;;;;;;;22.36;58.23;100052.53;10265370;28;20054;-70
2023/06/08 07:36:31;;;;;;;6.28;5.68;;;;;;;22.29;57.60;100045.41;10255974;28;20059;-72
2023/06/08 07:41:33;;;;;;;5.47;5.07;;;;;;;22.44;57.43;100048.78;10264001;28;20057;-71
2023/06/08 07:46:36;;;;;;;6.25;5.75;;;;;;;22.63;56.06;100040.91;10267595;28;20062;-72
2023/06/08 07:51:37;;;;;;;5.90;5.22;;;;;;;22.82;55.97;100048.22;10249429;28;20064;-71
2023/06/08 07:56:39;;;;;;;6.13;5.50;;;;;;;23.08;55.92;100049.22;10269155;28;20050;-72
2023/06/08 08:01:42;;;;;;;6.35;5.80;;;;;;;22.97;55.55;100048.00;10272061;28;20046;-72
2023/06/08 08:06:44;;;;;;;7.13;6.30;;;;;;;23.11;55.28;100044.22;10253576;28;20149;-71
2023/06/08 08:11:45;;;;;;;5.40;5.00;;;;;;;23.35;55.30;100049.22;10253452;28;20059;-70
2023/06/08 08:16:47;;;;;;;5.45;4.95;;;;;;;23.55;54.29;100039.13;10270855;28;20058;-73
2023/06/08 08:21:48;;;;;;;5.85;5.35;;;;;;;23.72;54.03;100034.06;10273052;28;20060;-72
2023/06/08 08:26:53;;;;;;;6.55;6.05;;;;;;;23.99;53.49;100048.38;10274784;28;20054;-73
2023/06/08 08:31:55;;;;;;;6.35;5.85;;;;;;;24.11;53.09;100043.09;10295970;28;20100;-71
2023/06/08 08:36:56;;;;;;;5.85;5.25;;;;;;;24.20;52.94;100056.41;10274124;28;20073;-71
2023/06/08 08:42:01;;;;;;;5.88;5.32;;;;;;;24.32;52.80;100041.91;10272888;28;20050;-70
2023/06/08 08:47:04;;;;;;;7.00;6.43;;;;;;;24.38;51.35;100042.94;10261315;28;20061;-70
2023/06/08 08:52:08;;;;;;;;;;;;;;;24.48;50.20;100051.41;10272510;28;20056;-72
2023/06/08 08:57:10;;;;;;;5.70;5.25;;;;;;;24.52;51.21;100049.09;10260775;23;20108;-51
2023/06/08 09:02:11;;;;;;;6.22;5.72;;;;;;;24.59;50.84;100041.78;10269869;22;20600;-51
2023/06/08 09:07:20;;;;;;;6.03;5.43;;;;;;;24.72;50.96;100048.16;10265777;28;20807;-50
2023/06/08 09:12:22;;;;;;;5.85;5.35;;;;;;;24.91;50.77;100041.72;10276236;28;20115;-53
2023/06/08 09:17:37;;;;;;;6.32;5.80;;;;;;;25.12;50.52;100037.75;10285118;28;20489;-50
2023/06/08 09:28:54;;;;;;;6.00;5.60;;;;;;;25.45;49.73;100030.31;10288912;28;20045;-51
2023/06/08 09:34:07;;;;;;;6.38;5.60;;;;;;;25.68;48.71;100029.59;10272304;28;20406;-52
2023/06/08 09:39:09;;;;;;;5.78;5.38;;;;;;;25.91;48.67;100018.81;10286067;28;20156;-52
2023/06/08 09:44:18;;;;;;;6.55;5.45;;;;;;;25.98;48.04;100013.25;10287593;28;20061;-51
2023/06/08 09:49:20;;;;;;;6.03;5.53;;;;;;;26.04;47.65;100003.38;10282832;28;20426;-51
2023/06/08 09:54:22;;;;;;;5.68;5.10;;;;;;;26.27;47.70;100006.19;10283868;28;20569;-52
2023/06/08 09:59:28;;;;;;;5.47;4.97;;;;;;;26.56;46.80;99997.34;10264649;28;20068;-52
2023/06/08 10:04:36;;;;;;;5.18;4.78;;;;;;;26.83;46.76;100005.06;10270299;28;20490;-52
2023/06/08 10:09:42;;;;;;;5.80;5.30;;;;;;;26.96;45.70;99999.38;10283459;28;20120;-52
2023/06/08 10:14:49;;;;;;;8.30;5.05;;;;;;;26.90;46.46;100003.06;10279461;28;20451;-52
2023/06/08 10:19:51;;;;;;;5.57;5.15;;;;;;;27.07;45.19;99990.38;10282503;28;20390;-51
2023/06/08 10:24:53;;;;;;;5.80;5.30;;;;;;;27.29;45.22;99984.25;10283394;28;20153;-52
2023/06/08 10:30:10;;;;;;;5.72;5.13;;;;;;;27.39;44.33;100000.91;10276226;28;21185;-52
2023/06/08 10:35:12;;;;;;;5.53;5.03;;;;;;;27.41;44.16;99971.44;10290954;28;20209;-52
2023/06/08 10:40:13;;;;;;;6.22;5.72;;;;;;;27.53;44.01;99963.19;10283975;28;20069;-52
2023/06/08 10:45:15;;;;;;;5.57;4.50;;;;;;;27.75;43.96;99965.28;10282249;28;20386;-51
2023/06/08 10:50:18;;;;;;;9.47;5.40;;;;;;;28.03;43.74;99956.25;10277908;28;20057;-51
2023/06/08 10:55:21;;;;;;;5.18;4.60;;;;;;;28.17;42.38;99943.09;10285160;28;20049;-54
2023/06/08 11:00:27;;;;;;;6.05;5.07;;;;;;;28.33;42.99;99939.53;10278772;28;20483;-51
2023/06/08 11:05:33;;;;;;;6.10;5.45;;;;;;;28.48;41.97;99933.47;10288163;28;20742;-51
2023/06/08 11:10:39;;;;;;;5.10;4.70;;;;;;;28.73;41.42;99924.00;10293242;28;20081;-51
2023/06/08 11:15:44;;;;;;;4.70;4.40;;;;;;;28.45;40.02;99920.28;10266150;28;20523;-54
2023/06/08 11:20:47;;;;;;;4.28;3.97;;;;;;;28.10;40.61;99902.19;10293029;28;20097;-60
2023/06/08 11:25:49;;;;;;;4.72;4.32;;;;;;;28.32;41.15;99901.47;10271960;28;20573;-60
2023/06/08 11:30:51;;;;;;;4.28;3.97;;;;;;;28.79;39.79;99892.84;10289075;28;20585;-60
2023/06/08 11:35:52;;;;;;;7.97;3.67;;;;;;;28.80;38.10;99889.03;10302873;28;20159;-60
2023/06/08 11:40:57;;;;;;;4.57;4.18;;;;;;;28.91;38.00;99879.91;10278144;28;20058;-59
2023/06/08 11:46:00;;;;;;;4.22;3.88;;;;;;;29.15;37.54;99879.63;10287604;28;20072;-62
2023/06/08 11:51:02;;;;;;;4.60;3.58;;;;;;;29.10;37.21;99885.03;10282070;28;20082;-61
2023/06/08 11:56:03;;;;;;;4.30;3.90;;;;;;;28.60;38.35;99867.69;10297850;28;20057;-59
2023/06/08 12:01:11;;;;;;;5.40;4.40;;;;;;;28.28;39.40;99865.53;10283434;28;20680;-60
2023/06/08 12:06:18;;;;;;;5.10;4.25;;;;;;;28.10;41.52;99877.56;10263673;28;20798;-61
2023/06/08 12:11:21;;;;;;;4.75;4.30;;;;;;;27.89;42.48;99872.81;10280849;28;20045;-61
2023/06/08 12:16:25;;;;;;;4.70;3.95;;;;;;;27.85;42.23;99873.31;10297931;28;20054;-60
2023/06/08 12:21:28;;;;;;;4.22;3.88;;;;;;;27.76;40.82;99860.28;10250511;28;20137;-61
2023/06/08 12:26:30;;;;;;;4.03;3.70;;;;;;;27.80;40.42;99858.72;10285677;28;20072;-60
2023/06/08 12:31:33;;;;;;;5.35;4.85;;;;;;;27.90;41.33;99853.44;10293050;28;20058;-60
2023/06/08 12:36:35;;;;;;;5.00;4.60;;;;;;;28.13;41.49;99857.91;10296943;28;20920;-59
2023/06/08 12:41:37;;;;;;;5.00;4.60;;;;;;;28.14;41.11;99845.91;10292587;28;20418;-59
2023/06/08 12:46:39;;;;;;;4.70;4.30;;;;;;;28.06;41.58;99854.56;10291883;28;20720;-60
2023/06/08 12:51:40;;;;;;;;;;;;;;;27.84;42.07;99844.31;10275145;28;20667;-60
2023/06/08 12:56:42;;;;;;;5.57;5.18;;;;;;;27.65;43.41;99857.38;10293974;28;19926;-60
2023/06/08 13:01:43;;;;;;;5.13;4.82;;;;;;;27.37;44.28;99838.25;10288005;28;20917;-60
2023/06/08 13:06:45;;;;;;;5.93;5.32;;;;;;;27.25;44.31;99838.28;10279378;28;20126;-60
2023/06/08 13:11:46;;;;;;;5.78;5.28;;;;;;;27.10;44.73;99834.19;10298691;28;20597;-60
2023/06/08 13:16:48;;;;;;;6.47;5.87;;;;;;;26.91;44.98;99827.25;10294895;28;20476;-60
2023/06/08 13:21:50;;;;;;;5.47;4.97;;;;;;;27.07;44.63;99833.84;10282082;28;20060;-60
2023/06/08 13:26:54;;;;;;;4.88;4.47;;;;;;;27.23;42.98;99832.25;10298261;28;20057;-59
2023/06/08 13:31:55;;;;;;;5.00;4.60;;;;;;;27.36;41.97;99821.03;10302345;28;20508;-59
2023/06/08 13:36:57;;;;;;;5.43;4.93;;;;;;;27.52;39.51;99809.31;10281237;28;20053;-60
2023/06/08 13:41:59;;;;;;;4.63;4.23;;;;;;;27.71;39.14;99795.41;10276561;28;20126;-60
2023/06/08 13:47:01;;;;;;;4.63;4.22;;;;;;;27.76;38.03;99790.03;10291876;28;20594;-59
2023/06/08 13:52:02;;;;;;;4.32;3.83;;;;;;;27.96;37.81;99777.75;10276469;28;21891;-59
2023/06/08 13:57:04;;;;;;;4.50;4.20;;;;;;;28.05;37.10;99762.63;10296757;28;20105;-60
2023/06/08 14:02:06;;;;;;;5.05;3.75;;;;;;;28.13;36.89;99773.13;10277464;28;20187;-59
2023/06/08 14:07:07;;;;;;;4.03;3.73;;;;;;;28.16;35.23;99780.81;10297560;28;20666;-59
2023/06/08 14:12:09;;;;;;;4.07;3.78;;;;;;;28.14;36.39;99793.13;10288825;28;20859;-59
2023/06/08 14:17:11;;;;;;;3.72;3.53;;;;;;;28.14;36.20;99793.94;10272661;28;20058;-59
2023/06/08 14:22:15;;;;;;;3.83;3.53;;;;;;;28.06;36.36;99797.09;10271612;28;20166;-59
2023/06/08 14:27:19;;;;;;;3.83;3.53;;;;;;;28.05;36.98;99803.63;10216979;28;20053;-59
2023/06/08 14:32:21;;;;;;;4.23;3.87;;;;;;;27.94;37.93;99801.78;10293882;28;20053;-59
2023/06/08 14:37:22;;;;;;;4.18;3.88;;;;;;;27.75;40.04;99812.97;10280548;28;21006;-59
2023/06/08 14:42:24;;;;;;;4.85;4.38;;;;;;;27.46;41.76;99826.69;10283833;28;20058;-59
2023/06/08 14:47:25;;;;;;;5.70;3.92;;;;;;;26.98;43.33;99833.41;10292585;28;20054;-59
2023/06/08 14:52:27;;;;;;;4.78;4.38;;;;;;;26.61;45.01;99842.69;10273623;28;20049;-60
2023/06/08 14:57:29;;;;;;;5.05;4.43;;;;;;;26.25;46.45;99841.88;10289893;28;20058;-59
2023/06/08 15:02:30;;;;;;;4.05;3.42;;;;;;;26.16;47.40;99850.69;10278072;28;21038;-59
2023/06/08 15:07:32;;;;;;;5.10;4.60;;;;;;;25.89;45.06;99829.28;10280082;28;20067;-59
2023/06/08 15:12:37;;;;;;;3.92;3.60;;;;;;;25.81;43.86;99848.72;10306014;28;20053;-60
2023/06/08 15:17:39;;;;;;;3.78;3.47;;;;;;;25.64;41.82;99852.09;10279213;28;20285;-59
2023/06/08 15:22:41;;;;;;;3.78;3.47;;;;;;;25.58;40.57;99858.47;10285867;28;20174;-63
2023/06/08 15:27:43;;;;;;;3.58;3.28;;;;;;;25.53;39.50;99866.50;10287240;28;20133;-57
2023/06/08 15:32:45;;;;;;;4.90;4.50;;;;;;;25.34;40.58;99855.66;10282338;28;20732;-59
2023/06/08 15:37:47;;;;;;;4.00;3.60;;;;;;;25.35;42.04;99851.84;10307552;28;20054;-59
2023/06/08 15:42:48;;;;;;;3.20;2.90;;;;;;;25.33;43.29;99847.72;10303685;28;20058;-60
2023/06/08 15:47:50;;;;;;;3.70;3.40;;;;;;;25.22;42.96;99850.13;10300576;28;20064;-59
2023/06/08 15:52:52;;;;;;;3.55;3.25;;;;;;;25.20;43.69;99852.25;10289022;28;20068;-58
2023/06/08 15:57:53;;;;;;;4.90;3.78;;;;;;;25.16;44.14;99839.31;10279482;28;20131;-60
2023/06/08 16:02:55;;;;;;;4.03;3.33;;;;;;;25.16;44.60;99831.16;10285071;28;20199;-60
2023/06/08 16:07:57;;;;;;;3.97;3.67;;;;;;;25.09;44.91;99830.44;10284059;28;20081;-60
2023/06/08 16:12:58;;;;;;;4.38;3.83;;;;;;;25.10;45.44;99837.50;10284151;28;20061;-59
2023/06/08 16:17:59;;;;;;;5.30;4.15;;;;;;;25.08;45.70;99877.75;10281234;28;20115;-60
2023/06/08 16:23:01;;;;;;;4.65;4.22;;;;;;;24.98;44.13;99897.34;10297391;28;20057;-59
2023/06/08 16:28:05;;;;;;;4.55;3.60;;;;;;;24.80;43.30;99887.28;10300766;28;20672;-58
2023/06/08 16:33:08;;;;;;;4.70;4.30;;;;;;;24.55;42.56;99885.44;10288166;28;20192;-60
2023/06/08 16:38:10;;;;;;;5.15;3.53;;;;;;;24.33;39.52;99880.38;10280557;28;20081;-59
2023/06/08 16:43:11;;;;;;;4.25;3.40;;;;;;;24.08;39.33;99890.44;10289629;28;20578;-59
2023/06/08 16:48:13;;;;;;;4.47;3.47;;;;;;;24.03;40.29;99860.38;10299485;28;20054;-58
2023/06/08 16:53:15;;;;;;;4.00;3.10;;;;;;;23.86;39.69;99844.63;10283119;28;20605;-58
2023/06/08 16:58:17;;;;;;;3.45;3.15;;;;;;;23.91;39.69;99839.34;10291341;28;20078;-58
2023/06/08 17:03:19;;;;;;;3.85;3.30;;;;;;;23.98;40.29;99842.84;10298353;28;20687;-58
2023/06/08 17:08:20;;;;;;;5.65;3.25;;;;;;;24.10;39.62;99850.28;10299830;28;20054;-58
2023/06/08 17:13:22;;;;;;;4.95;3.33;;;;;;;24.16;39.90;99849.38;10286910;28;20760;-58
2023/06/08 17:18:24;;;;;;;4.15;3.42;;;;;;;24.24;39.55;99840.13;10303028;28;20720;-58
2023/06/08 17:23:26;;;;;;;3.83;3.53;;;;;;;24.25;39.94;99848.03;10294795;28;20118;-58
2023/06/08 17:28:27;;;;;;;2.80;2.60;;;;;;;24.25;39.04;99845.31;10299853;28;20046;-57
2023/06/08 17:33:29;;;;;;;3.70;3.40;;;;;;;24.25;38.88;99842.59;10306696;28;20049;-59
2023/06/08 17:38:30;;;;;;;4.72;3.80;;;;;;;24.23;39.07;99844.72;10307469;28;20061;-58
2023/06/08 17:43:47;;;;;;;5.40;4.80;;;;;;;24.22;38.42;99891.19;10283779;28;20056;-59
2023/06/08 17:48:48;;;;;;;4.65;4.25;;;;;;;24.12;39.65;99869.91;10290359;28;20451;-58
2023/06/08 17:53:53;;;;;;;4.85;4.35;;;;;;;24.07;39.45;99856.16;10309665;28;20120;-58
2023/06/08 17:58:55;;;;;;;3.92;3.50;;;;;;;24.07;39.38;99872.47;10315745;28;20045;-58
2023/06/08 18:03:57;;;;;;;6.10;4.40;;;;;;;24.06;39.83;99876.25;10306103;28;20049;-59
2023/06/08 18:08:59;;;;;;;5.30;4.82;;;;;;;24.02;40.58;99880.44;10306386;28;20343;-58
2023/06/08 18:14:00;;;;;;;5.57;4.80;;;;;;;24.00;41.09;99858.91;10298866;28;20050;-59
2023/06/08 18:19:02;;;;;;;5.57;5.07;;;;;;;24.00;41.61;99862.50;10301807;28;20170;-59
2023/06/08 18:24:04;;;;;;;5.35;4.30;;;;;;;23.94;42.36;99866.06;10281131;28;20050;-58
2023/06/08 18:29:06;;;;;;;5.50;4.70;;;;;;;23.92;43.39;99860.03;10283674;28;20053;-59
2023/06/08 18:34:07;;;;;;;4.55;4.10;;;;;;;23.91;43.09;99846.66;10285340;28;20136;-58
2023/06/08 18:39:09;;;;;;;4.85;4.35;;;;;;;23.91;43.89;99835.78;10281097;28;20056;-60
2023/06/08 18:44:10;;;;;;;5.55;4.43;;;;;;;23.89;43.83;99832.47;10280650;28;20593;-58
2023/06/08 18:49:12;;;;;;;5.13;4.72;;;;;;;23.88;44.17;99841.69;10299875;28;20797;-59
2023/06/08 18:54:14;;;;;;;4.88;4.47;;;;;;;23.85;44.44;99840.22;10263201;28;20069;-58
2023/06/08 18:59:15;;;;;;;5.40;4.50;;;;;;;23.81;44.19;99837.09;10284759;28;20521;-59
2023/06/08 19:04:17;;;;;;;4.75;4.15;;;;;;;23.73;44.40;99839.25;10286560;28;20054;-60
2023/06/08 19:09:21;;;;;;;5.30;4.78;;;;;;;23.73;45.37;99850.09;10296670;28;20184;-59
2023/06/08 19:14:23;;;;;;;5.45;4.93;;;;;;;23.71;44.91;99868.53;10298549;28;20141;-59
2023/06/08 19:19:24;;;;;;;7.47;5.35;;;;;;;23.62;45.19;99881.53;10273504;28;20061;-58
2023/06/08 19:24:27;;;;;;;5.05;4.65;;;;;;;23.57;45.65;99873.19;10265790;28;20088;-58
2023/06/08 19:29:28;;;;;;;6.50;5.30;;;;;;;23.51;45.52;99902.09;10298551;28;20647;-58
2023/06/08 19:34:31;;;;;;;5.97;5.15;;;;;;;23.44;45.99;99907.53;10278214;28;20124;-58
2023/06/08 19:39:33;;;;;;;;;;;;;;;23.38;46.33;99910.28;10294449;28;20272;-64
2023/06/08 19:44:34;;;;;;;5.43;4.93;;;;;;;23.34;45.96;99900.91;10293174;28;20381;-59
2023/06/08 19:49:36;;;;;;;5.18;4.68;;;;;;;23.18;46.01;99881.34;10293991;28;20058;-59
2023/06/08 19:54:38;;;;;;;5.82;4.70;;;;;;;23.25;46.12;99906.56;10292618;28;20462;-56
2023/06/08 19:59:42;;;;;;;4.85;4.45;;;;;;;23.21;46.56;99901.78;10297078;28;20054;-56
2023/06/08 20:04:43;;;;;;;5.28;4.63;;;;;;;23.09;47.71;99912.47;10290628;28;20053;-56
2023/06/08 20:09:45;;;;;;;5.93;5.15;;;;;;;23.08;48.02;99908.09;10295821;28;20475;-56
2023/06/08 20:14:46;;;;;;;5.63;5.07;;;;;;;23.06;48.99;99911.00;10301020;28;20066;-54
2023/06/08 20:19:52;;;;;;;5.13;4.72;;;;;;;23.06;49.82;99916.44;10279113;28;20050;-56
2023/06/08 20:24:53;;;;;;;5.30;4.85;;;;;;;23.02;50.00;99919.78;10293180;28;20054;-56
2023/06/08 20:29:55;;;;;;;6.60;5.97;;;;;;;22.97;51.70;99927.72;10301256;28;20053;-55
2023/06/08 20:34:57;;;;;;;5.95;4.97;;;;;;;22.92;51.82;99926.50;10299198;28;20049;-56
2023/06/08 20:39:58;;;;;;;6.18;5.50;;;;;;;22.89;52.39;99932.31;10301580;28;20148;-55
2023/06/08 20:45:00;;;;;;;6.45;5.85;;;;;;;22.86;53.14;99938.19;10293847;28;20382;-55
2023/06/08 20:50:02;;;;;;;6.22;5.63;;;;;;;22.82;53.17;99947.81;10276581;28;20171;-55
2023/06/08 20:55:04;;;;;;;6.03;5.53;;;;;;;22.75;53.61;99947.81;10282845;28;20054;-56
2023/06/08 21:00:09;;;;;;;7.27;6.57;;;;;;;22.76;53.73;99954.91;10294312;28;20756;-55
2023/06/08 21:05:14;;;;;;;6.28;5.80;;;;;;;22.73;54.13;99970.78;10280658;28;20170;-59
2023/06/08 21:10:18;;;;;;;6.25;5.75;;;;;;;22.66;54.23;99983.53;10289997;28;20190;-59
2023/06/08 21:15:20;;;;;;;5.75;5.35;;;;;;;22.62;54.84;99974.94;10291496;28;20050;-59
2023/06/08 21:20:21;;;;;;;5.30;4.90;;;;;;;22.60;54.71;99993.31;10334088;28;20065;-58
2023/06/08 21:25:23;;;;;;;5.95;5.35;;;;;;;22.48;55.43;99984.97;10330192;28;20054;-58
2023/06/08 21:30:25;;;;;;;6.60;6.07;;;;;;;22.21;57.35;99976.78;10317348;28;20053;-58
2023/06/08 21:35:27;;;;;;;6.13;5.55;;;;;;;22.19;57.12;99970.75;10306655;28;20077;-59
2023/06/08 21:40:29;;;;;;;5.82;5.28;;;;;;;22.18;56.48;99973.66;10309075;28;20049;-59
2023/06/08 21:45:32;;;;;;;6.72;5.68;;;;;;;22.11;56.64;99976.34;10287610;28;20046;-59
2023/06/08 21:50:33;;;;;;;5.30;4.80;;;;;;;22.03;56.25;99977.38;10310232;28;20506;-59
2023/06/08 21:55:35;;;;;;;5.95;5.30;;;;;;;21.93;56.62;99971.50;10292033;28;20057;-57
2023/06/08 22:00:37;;;;;;;5.57;5.07;;;;;;;21.87;55.63;99967.78;10302798;28;20510;-59
2023/06/08 22:05:38;;;;;;;5.22;4.72;;;;;;;21.78;55.39;99952.72;10314121;28;20055;-57
2023/06/08 22:10:40;;;;;;;5.15;4.65;;;;;;;21.73;55.03;99959.81;10312263;28;20060;-57
2023/06/08 22:15:42;;;;;;;4.55;4.18;;;;;;;21.66;54.63;99948.94;10294134;28;21877;-57
2023/06/08 22:20:44;;;;;;;5.65;4.55;;;;;;;21.61;54.23;99946.03;10293028;28;20155;-59
2023/06/08 22:25:45;;;;;;;4.30;3.88;;;;;;;21.59;54.07;99939.94;10307959;28;20053;-59
2023/06/08 22:30:49;;;;;;;4.22;3.92;;;;;;;21.55;53.94;99934.13;10317897;28;20661;-58
2023/06/08 22:35:51;;;;;;;4.45;4.05;;;;;;;21.48;54.05;99931.38;10304754;28;20046;-58
2023/06/08 22:40:53;;;;;;;4.30;4.00;;;;;;;21.43;54.38;99933.84;10304763;28;20061;-58
2023/06/08 22:45:55;;;;;;;4.57;4.00;;;;;;;21.37;54.63;99930.06;10288454;28;20049;-58
2023/06/08 22:50:56;;;;;;;4.38;3.92;;;;;;;21.13;54.67;99890.00;10308093;28;20540;-59
2023/06/08 22:55:58;;;;;;;5.00;4.22;;;;;;;21.30;54.62;99922.94;10301036;28;20058;-59
2023/06/08 23:01:00;;;;;;;5.78;4.30;;;;;;;21.24;54.40;99924.59;10305813;28;20677;-58
2023/06/08 23:06:02;;;;;;;4.03;3.73;;;;;;;21.24;53.95;99918.34;10300024;28;20066;-57
2023/06/08 23:11:04;;;;;;;4.95;4.03;;;;;;;21.21;54.03;99921.47;10294717;28;20046;-57
2023/06/08 23:16:08;;;;;;;4.80;4.28;;;;;;;21.18;54.01;99923.53;10294551;28;20817;-57
2023/06/08 23:21:12;;;;;;;4.88;4.38;;;;;;;21.17;53.68;99913.75;10312415;28;20098;-59
2023/06/08 23:26:14;;;;;;;4.30;3.85;;;;;;;21.11;53.53;99903.72;10300750;28;20058;-57